Time;durP1;ratioP1;P1;durP2;ratioP2;P2;SDS_P1;SDS_P2;PMS_P1;PMS_P2;Temp;Humidity;BMP_temperature;BMP_pressure;BME280_temperature;BME280_humidity;BME280_pressure;Samples;Min_cycle;Max_cycle;Signal;HPM_P1;HPM_P2
2022/07/14 00:00:39;;;;;;;1999.90;999.90;;;;;;;;;;5098735;27;20411;-75
2022/07/14 00:03:06;;;;;;;1999.90;999.90;;;;;;;;;;5098314;27;20407;-75
2022/07/14 00:05:35;;;;;;;1999.90;999.90;;;;;;;;;;5096909;27;20381;-76
2022/07/14 00:08:04;;;;;;;1999.90;999.90;;;;;;;;;;5095944;27;20403;-75
2022/07/14 00:10:32;;;;;;;1999.90;999.90;;;;;;;;;;5113850;27;20403;-75
2022/07/14 00:13:00;;;;;;;1999.90;999.90;;;;;;;;;;5098649;27;22677;-76
2022/07/14 00:15:28;;;;;;;1999.90;999.90;;;;;;;;;;5096123;27;20407;-78
2022/07/14 00:17:58;;;;;;;1999.90;999.90;;;;;;;;;;5098872;27;20761;-74
2022/07/14 00:20:26;;;;;;;1999.90;999.90;;;;;;;;;;5099342;27;20395;-75
2022/07/14 00:22:55;;;;;;;1999.90;999.90;;;;;;;;;;5100096;27;20864;-75
2022/07/14 00:25:25;;;;;;;1999.90;999.90;;;;;;;;;;5097888;27;20414;-74
2022/07/14 00:27:53;;;;;;;1999.90;999.90;;;;;;;;;;5101277;27;20407;-75
2022/07/14 00:30:21;;;;;;;1999.90;999.90;;;;;;;;;;5097430;27;20468;-75
2022/07/14 00:32:49;;;;;;;1999.90;999.90;;;;;;;;;;5075771;27;20460;-75
2022/07/14 00:35:17;;;;;;;1999.90;999.90;;;;;;;;;;5095929;27;20458;-75
2022/07/14 00:37:44;;;;;;;1999.90;999.90;;;;;;;;;;5080076;27;21072;-75
2022/07/14 00:40:13;;;;;;;1999.90;999.90;;;;;;;;;;5093009;27;21214;-75
2022/07/14 00:42:46;;;;;;;1999.90;999.90;;;;;;;;;;5095872;27;20496;-74
2022/07/14 00:45:14;;;;;;;1999.90;999.90;;;;;;;;;;5078862;27;21885;-75
2022/07/14 00:47:43;;;;;;;1999.90;999.90;;;;;;;;;;5078936;28;20406;-75
2022/07/14 00:50:12;;;;;;;1999.90;999.90;;;;;;;;;;5096418;27;20500;-75
2022/07/14 00:52:42;;;;;;;1999.90;999.90;;;;;;;;;;5078815;28;20399;-75
2022/07/14 00:55:10;;;;;;;1999.90;999.90;;;;;;;;;;5080442;27;20411;-74
2022/07/14 00:57:38;;;;;;;1999.90;999.90;;;;;;;;;;5099366;27;20406;-74
2022/07/14 01:00:09;;;;;;;1999.90;999.90;;;;;;;;;;5098815;27;20400;-74
2022/07/14 01:02:37;;;;;;;1999.90;999.90;;;;;;;;;;5083528;28;20461;-75
2022/07/14 01:05:05;;;;;;;1999.90;999.90;;;;;;;;;;5081122;27;20422;-75
2022/07/14 01:07:33;;;;;;;1999.90;999.90;;;;;;;;;;5093355;27;20395;-75
2022/07/14 01:10:01;;;;;;;1999.90;999.90;;;;;;;;;;5100856;27;20423;-75
2022/07/14 01:12:28;;;;;;;1999.90;999.90;;;;;;;;;;5101786;27;20408;-75
2022/07/14 01:14:56;;;;;;;1999.90;999.90;;;;;;;;;;5097983;27;20407;-75
2022/07/14 01:17:25;;;;;;;1999.90;999.90;;;;;;;;;;5096557;27;20935;-76
2022/07/14 01:19:53;;;;;;;1999.90;999.90;;;;;;;;;;5108570;27;20403;-74
2022/07/14 01:22:23;;;;;;;1999.90;999.90;;;;;;;;;;5072440;27;20403;-73
2022/07/14 01:24:52;;;;;;;1999.90;999.90;;;;;;;;;;5088821;27;20415;-74
2022/07/14 01:27:22;;;;;;;1999.90;999.90;;;;;;;;;;5081849;27;20478;-74
2022/07/14 01:29:50;;;;;;;1999.90;999.90;;;;;;;;;;5101245;27;20391;-74
2022/07/14 01:32:18;;;;;;;1999.90;999.90;;;;;;;;;;5082716;28;20414;-74
2022/07/14 01:34:47;;;;;;;1999.90;999.90;;;;;;;;;;5080011;27;20417;-74
2022/07/14 01:37:14;;;;;;;1999.90;999.90;;;;;;;;;;5089576;27;20388;-74
2022/07/14 01:39:45;;;;;;;1999.90;999.90;;;;;;;;;;5088928;27;20522;-74
2022/07/14 01:42:13;;;;;;;1999.90;999.90;;;;;;;;;;5090755;27;20441;-75
2022/07/14 01:44:40;;;;;;;1999.90;999.90;;;;;;;;;;5095262;27;20420;-76
2022/07/14 01:47:09;;;;;;;1999.90;999.90;;;;;;;;;;5093262;27;20406;-74
2022/07/14 01:49:37;;;;;;;1999.90;999.90;;;;;;;;;;5079214;28;20395;-76
2022/07/14 01:52:07;;;;;;;1999.90;999.90;;;;;;;;;;5082931;27;20344;-75
2022/07/14 01:54:38;;;;;;;1999.90;999.90;;;;;;;;;;5081459;28;20398;-75
2022/07/14 01:57:09;;;;;;;1999.90;999.90;;;;;;;;;;5079637;27;20403;-75
2022/07/14 01:59:37;;;;;;;1999.90;999.90;;;;;;;;;;5097759;27;20411;-76
2022/07/14 02:02:07;;;;;;;1999.90;999.90;;;;;;;;;;5075545;27;20384;-75
2022/07/14 02:04:35;;;;;;;1999.90;999.90;;;;;;;;;;5094169;27;20419;-74
2022/07/14 02:07:04;;;;;;;1999.90;999.90;;;;;;;;;;5092835;27;22016;-75
2022/07/14 02:12:32;;;;;;;1999.90;999.90;;;;;;;;;;5080200;27;20898;-75
2022/07/14 02:15:01;;;;;;;1999.90;999.90;;;;;;;;;;5097476;27;20419;-75
2022/07/14 02:17:30;;;;;;;1999.90;999.90;;;;;;;;;;5112800;27;20395;-74
2022/07/14 02:19:58;;;;;;;1999.90;999.90;;;;;;;;;;5098200;27;20418;-75
2022/07/14 02:22:40;;;;;;;1999.90;999.90;;;;;;;;;;5092249;27;20415;-74
2022/07/14 02:25:09;;;;;;;1999.90;999.90;;;;;;;;;;5095075;27;20870;-75
2022/07/14 02:27:38;;;;;;;1999.90;999.90;;;;;;;;;;5077781;28;20387;-75
2022/07/14 02:30:06;;;;;;;1999.90;999.90;;;;;;;;;;5096329;27;20442;-75
2022/07/14 02:32:37;;;;;;;1999.90;999.90;;;;;;;;;;5093480;27;20415;-75
2022/07/14 02:35:06;;;;;;;1999.90;999.90;;;;;;;;;;5077374;28;20400;-75
2022/07/14 02:37:34;;;;;;;1999.90;999.90;;;;;;;;;;5076730;27;21436;-75
2022/07/14 02:40:05;;;;;;;1999.90;999.90;;;;;;;;;;5094609;27;20406;-75
2022/07/14 02:42:33;;;;;;;1999.90;999.90;;;;;;;;;;5093450;27;20391;-75
2022/07/14 02:45:03;;;;;;;1999.90;999.90;;;;;;;;;;5075350;28;20913;-75
2022/07/14 02:47:31;;;;;;;1999.90;999.90;;;;;;;;;;5109953;27;20413;-74
2022/07/14 02:50:00;;;;;;;1999.90;999.90;;;;;;;;;;5090811;27;20429;-75
2022/07/14 02:52:29;;;;;;;1999.90;999.90;;;;;;;;;;5092972;27;20396;-75
2022/07/14 02:54:57;;;;;;;1999.90;999.90;;;;;;;;;;5082009;28;20411;-74
2022/07/14 02:57:28;;;;;;;1999.90;999.90;;;;;;;;;;5097227;27;20418;-75
2022/07/14 02:59:57;;;;;;;1999.90;999.90;;;;;;;;;;5081081;27;20391;-74
2022/07/14 03:02:27;;;;;;;1999.90;999.90;;;;;;;;;;5078670;27;20451;-74
2022/07/14 03:04:55;;;;;;;1999.90;999.90;;;;;;;;;;5114464;27;20423;-75
2022/07/14 03:07:23;;;;;;;1999.90;999.90;;;;;;;;;;5078207;27;20472;-75
2022/07/14 03:09:51;;;;;;;1999.90;999.90;;;;;;;;;;5103637;27;20509;-75
2022/07/14 03:12:19;;;;;;;1999.90;999.90;;;;;;;;;;5080764;27;20403;-74
2022/07/14 03:14:48;;;;;;;1999.90;999.90;;;;;;;;;;5078682;27;20874;-75
2022/07/14 03:17:17;;;;;;;1999.90;999.90;;;;;;;;;;5081550;27;20395;-74
2022/07/14 03:19:47;;;;;;;1999.90;999.90;;;;;;;;;;5097543;27;20395;-74
2022/07/14 03:22:16;;;;;;;1999.90;999.90;;;;;;;;;;5079078;27;20415;-74
2022/07/14 03:24:43;;;;;;;1999.90;999.90;;;;;;;;;;5099338;27;20423;-75
2022/07/14 03:27:12;;;;;;;1999.90;999.90;;;;;;;;;;5099225;27;20437;-74
2022/07/14 03:29:40;;;;;;;1999.90;999.90;;;;;;;;;;5081176;28;20574;-75
2022/07/14 03:32:08;;;;;;;1999.90;999.90;;;;;;;;;;5079043;27;20793;-75
2022/07/14 03:34:36;;;;;;;1999.90;999.90;;;;;;;;;;5080214;28;20763;-75
2022/07/14 03:37:05;;;;;;;1999.90;999.90;;;;;;;;;;5098083;27;20386;-75
2022/07/14 03:39:45;;;;;;;1999.90;999.90;;;;;;;;;;5098527;27;20400;-75
2022/07/14 03:42:13;;;;;;;1999.90;999.90;;;;;;;;;;5096390;27;20395;-74
2022/07/14 03:44:41;;;;;;;1999.90;999.90;;;;;;;;;;5095696;27;20472;-74
2022/07/14 03:47:09;;;;;;;1999.90;999.90;;;;;;;;;;5096450;27;20932;-74
2022/07/14 03:49:37;;;;;;;1999.90;999.90;;;;;;;;;;5096535;27;20858;-74
2022/07/14 03:52:07;;;;;;;1999.90;999.90;;;;;;;;;;5096694;27;20479;-76
2022/07/14 03:54:36;;;;;;;1999.90;999.90;;;;;;;;;;5097956;27;20451;-73
2022/07/14 03:57:04;;;;;;;1999.90;999.90;;;;;;;;;;5080823;28;20399;-73
2022/07/14 03:59:40;;;;;;;1999.90;999.90;;;;;;;;;;5081323;27;20415;-73
2022/07/14 04:02:12;;;;;;;1999.90;999.90;;;;;;;;;;5089568;27;20384;-75
2022/07/14 04:04:40;;;;;;;1999.90;999.90;;;;;;;;;;5098414;27;20410;-74
2022/07/14 04:07:09;;;;;;;1999.90;999.90;;;;;;;;;;5080798;27;20933;-75
2022/07/14 04:09:38;;;;;;;1999.90;999.90;;;;;;;;;;5098463;27;20861;-74
2022/07/14 04:12:07;;;;;;;1999.90;999.90;;;;;;;;;;5079453;27;20649;-74
2022/07/14 04:14:35;;;;;;;1999.90;999.90;;;;;;;;;;5094671;27;20405;-74
2022/07/14 04:17:03;;;;;;;1999.90;999.90;;;;;;;;;;5097100;27;20418;-74
2022/07/14 04:19:32;;;;;;;1999.90;999.90;;;;;;;;;;5079957;27;21123;-74
2022/07/14 04:22:00;;;;;;;1999.90;999.90;;;;;;;;;;5077801;28;20880;-74
2022/07/14 04:24:50;;;;;;;1999.90;999.90;;;;;;;;;;5081012;27;20510;-74
2022/07/14 04:27:18;;;;;;;1999.90;999.90;;;;;;;;;;5096626;27;20411;-73
2022/07/14 04:29:47;;;;;;;1999.90;999.90;;;;;;;;;;5100242;27;20408;-75
2022/07/14 04:32:15;;;;;;;1999.90;999.90;;;;;;;;;;5096226;27;20424;-74
2022/07/14 04:34:44;;;;;;;1999.90;999.90;;;;;;;;;;5080927;27;20404;-75
2022/07/14 04:37:12;;;;;;;1999.90;999.90;;;;;;;;;;5079875;27;20710;-76
2022/07/14 04:39:41;;;;;;;1999.90;999.90;;;;;;;;;;5081477;28;21348;-74
2022/07/14 04:42:10;;;;;;;1999.90;999.90;;;;;;;;;;5079321;27;20403;-74
2022/07/14 04:44:42;;;;;;;1999.90;999.90;;;;;;;;;;5078435;27;20443;-74
2022/07/14 04:47:10;;;;;;;1999.90;999.90;;;;;;;;;;5095017;27;20801;-74
2022/07/14 04:52:26;;;;;;;1999.90;999.90;;;;;;;;;;5090531;27;20464;-76
2022/07/14 04:55:05;;;;;;;1999.90;999.90;;;;;;;;;;5091944;27;20434;-75
2022/07/14 04:57:53;;;;;;;1999.90;999.90;;;;;;;;;;5094057;27;20432;-75
2022/07/14 05:00:21;;;;;;;1999.90;999.90;;;;;;;;;;5113370;27;20392;-75
2022/07/14 05:02:49;;;;;;;1999.90;999.90;;;;;;;;;;5093380;27;20525;-75
2022/07/14 05:05:17;;;;;;;1999.90;999.90;;;;;;;;;;5093600;27;20434;-75
2022/07/14 05:07:45;;;;;;;1999.90;999.90;;;;;;;;;;5077895;28;20874;-75
2022/07/14 05:10:20;;;;;;;1999.90;999.90;;;;;;;;;;5094787;27;20402;-75
2022/07/14 05:12:49;;;;;;;1999.90;999.90;;;;;;;;;;5092734;27;20403;-75
2022/07/14 05:15:18;;;;;;;1999.90;999.90;;;;;;;;;;5095374;27;20426;-75
2022/07/14 05:17:47;;;;;;;1999.90;999.90;;;;;;;;;;5092127;27;20443;-75
2022/07/14 05:20:15;;;;;;;1999.90;999.90;;;;;;;;;;5095551;27;20476;-75
2022/07/14 05:22:44;;;;;;;1999.90;999.90;;;;;;;;;;5076441;27;20780;-75
2022/07/14 05:25:14;;;;;;;1999.90;999.90;;;;;;;;;;5077598;27;20444;-74
2022/07/14 05:27:44;;;;;;;1999.90;999.90;;;;;;;;;;5092694;27;20418;-75
2022/07/14 05:30:24;;;;;;;1999.90;999.90;;;;;;;;;;5094109;27;21400;-75
2022/07/14 05:32:53;;;;;;;1999.90;999.90;;;;;;;;;;5091122;27;20476;-75
2022/07/14 05:35:21;;;;;;;1999.90;999.90;;;;;;;;;;5076609;27;20403;-76
2022/07/14 05:37:50;;;;;;;1999.90;999.90;;;;;;;;;;5092011;27;21120;-74
2022/07/14 05:40:18;;;;;;;1999.90;999.90;;;;;;;;;;5092142;27;20393;-77
2022/07/14 05:42:47;;;;;;;1999.90;999.90;;;;;;;;;;5093565;27;20905;-76
2022/07/14 05:45:15;;;;;;;1999.90;999.90;;;;;;;;;;5091549;27;20462;-76
2022/07/14 05:47:44;;;;;;;1999.90;999.90;;;;;;;;;;5075076;27;20403;-74
2022/07/14 05:50:12;;;;;;;1999.90;999.90;;;;;;;;;;5075886;27;20392;-74
2022/07/14 05:52:43;;;;;;;1999.90;999.90;;;;;;;;;;5110020;27;20403;-74
2022/07/14 05:55:12;;;;;;;1999.90;999.90;;;;;;;;;;5076325;27;21095;-75
2022/07/14 05:57:39;;;;;;;1999.90;999.90;;;;;;;;;;5077977;28;20395;-74
2022/07/14 06:00:10;;;;;;;1999.90;999.90;;;;;;;;;;5093864;27;20395;-76
2022/07/14 06:02:50;;;;;;;1999.90;999.90;;;;;;;;;;5070111;27;20396;-75
2022/07/14 06:05:26;;;;;;;1999.90;999.90;;;;;;;;;;5109118;27;20399;-76
2022/07/14 06:07:54;;;;;;;1999.90;999.90;;;;;;;;;;5077761;27;20490;-74
2022/07/14 06:10:22;;;;;;;1999.90;999.90;;;;;;;;;;5076277;27;20379;-74
2022/07/14 06:12:53;;;;;;;1999.90;999.90;;;;;;;;;;5076030;27;20484;-74
2022/07/14 06:15:23;;;;;;;1999.90;999.90;;;;;;;;;;5077657;27;20518;-74
2022/07/14 06:17:52;;;;;;;1999.90;999.90;;;;;;;;;;5112083;27;20391;-76
2022/07/14 06:20:21;;;;;;;1999.90;999.90;;;;;;;;;;5076173;27;20396;-74
2022/07/14 06:22:51;;;;;;;1999.90;999.90;;;;;;;;;;5077094;28;20456;-77
2022/07/14 06:25:22;;;;;;;1999.90;999.90;;;;;;;;;;5093148;27;20403;-74
2022/07/14 06:27:50;;;;;;;1999.90;999.90;;;;;;;;;;5078522;28;20468;-72
2022/07/14 06:30:19;;;;;;;1999.90;999.90;;;;;;;;;;5097446;27;20510;-72
2022/07/14 06:32:47;;;;;;;1999.90;999.90;;;;;;;;;;5077834;28;20391;-74
2022/07/14 06:35:18;;;;;;;1999.90;999.90;;;;;;;;;;5097922;27;20460;-73
2022/07/14 06:37:46;;;;;;;1999.90;999.90;;;;;;;;;;5088518;27;20496;-73
2022/07/14 06:40:14;;;;;;;1999.90;999.90;;;;;;;;;;5076203;27;20395;-73
2022/07/14 06:42:45;;;;;;;1999.90;999.90;;;;;;;;;;5080509;28;20407;-73
2022/07/14 06:45:34;;;;;;;1999.90;999.90;;;;;;;;;;5095621;27;20442;-72
2022/07/14 06:48:02;;;;;;;1999.90;999.90;;;;;;;;;;5070700;28;21210;-72
2022/07/14 06:50:31;;;;;;;1999.90;999.90;;;;;;;;;;5087349;27;20409;-73
2022/07/14 06:52:59;;;;;;;1999.90;999.90;;;;;;;;;;5074321;28;21156;-74
2022/07/14 06:55:27;;;;;;;1999.90;999.90;;;;;;;;;;5094045;27;20494;-74
2022/07/14 06:57:55;;;;;;;1999.90;999.90;;;;;;;;;;5088761;27;20559;-74
2022/07/14 07:00:28;;;;;;;1999.90;999.90;;;;;;;;;;5087688;27;20414;-73
2022/07/14 07:02:56;;;;;;;1999.90;999.90;;;;;;;;;;5094515;27;20504;-75
2022/07/14 07:08:23;;;;;;;1999.90;999.90;;;;;;;;;;5023969;28;20495;-73
2022/07/14 07:10:50;;;;;;;1999.90;999.90;;;;;;;;;;5071603;27;20977;-74
2022/07/14 07:13:18;;;;;;;1999.90;999.90;;;;;;;;;;5082760;27;20411;-74
2022/07/14 07:15:46;;;;;;;1999.90;999.90;;;;;;;;;;5112462;27;20410;-73
2022/07/14 07:18:14;;;;;;;1999.90;999.90;;;;;;;;;;5089400;27;20410;-73
2022/07/14 07:20:44;;;;;;;1999.90;999.90;;;;;;;;;;5092488;27;20395;-72
2022/07/14 07:23:19;;;;;;;1999.90;999.90;;;;;;;;;;5109715;27;20407;-72
2022/07/14 07:25:48;;;;;;;1999.90;999.90;;;;;;;;;;5105046;27;20591;-72
2022/07/14 07:28:15;;;;;;;1999.90;999.90;;;;;;;;;;5089704;27;20384;-72
2022/07/14 07:30:43;;;;;;;1999.90;999.90;;;;;;;;;;5087806;27;20415;-71
2022/07/14 07:33:11;;;;;;;1999.90;999.90;;;;;;;;;;5089346;27;20418;-72
2022/07/14 07:35:42;;;;;;;1999.90;999.90;;;;;;;;;;5088540;27;21059;-73
2022/07/14 07:38:10;;;;;;;1999.90;999.90;;;;;;;;;;5090942;27;20900;-71
2022/07/14 07:40:38;;;;;;;1999.90;999.90;;;;;;;;;;5087126;27;21053;-71
2022/07/14 07:43:07;;;;;;;1999.90;999.90;;;;;;;;;;5092115;27;20394;-71
2022/07/14 07:45:35;;;;;;;1999.90;999.90;;;;;;;;;;5092943;27;20494;-71
2022/07/14 07:48:03;;;;;;;1999.90;999.90;;;;;;;;;;5091531;27;20414;-74
2022/07/14 07:50:31;;;;;;;1999.90;999.90;;;;;;;;;;5090467;27;20508;-73
2022/07/14 07:52:59;;;;;;;1999.90;999.90;;;;;;;;;;5090425;27;20407;-72
2022/07/14 07:55:27;;;;;;;1999.90;999.90;;;;;;;;;;5091321;27;20398;-72
2022/07/14 07:57:55;;;;;;;1999.90;999.90;;;;;;;;;;5091091;27;20387;-71
2022/07/14 08:00:24;;;;;;;1999.90;999.90;;;;;;;;;;5090504;27;20443;-73
2022/07/14 08:02:53;;;;;;;1999.90;999.90;;;;;;;;;;5088040;27;20445;-71
2022/07/14 08:05:23;;;;;;;1999.90;999.90;;;;;;;;;;5091103;27;20870;-73
2022/07/14 08:08:11;;;;;;;1999.90;999.90;;;;;;;;;;5089665;27;20379;-72
2022/07/14 08:10:39;;;;;;;1999.90;999.90;;;;;;;;;;5088534;27;20406;-72
2022/07/14 08:13:08;;;;;;;1999.90;999.90;;;;;;;;;;5089679;27;20383;-74
2022/07/14 08:15:37;;;;;;;1999.90;999.90;;;;;;;;;;5110322;27;20411;-75
2022/07/14 08:18:05;;;;;;;1999.90;999.90;;;;;;;;;;5087677;27;20395;-76
2022/07/14 08:20:34;;;;;;;1999.90;999.90;;;;;;;;;;5094530;27;20426;-75
2022/07/14 08:23:02;;;;;;;1999.90;999.90;;;;;;;;;;5095289;27;20467;-75
2022/07/14 08:25:30;;;;;;;1999.90;999.90;;;;;;;;;;5097961;27;20415;-75
2022/07/14 08:27:57;;;;;;;1999.90;999.90;;;;;;;;;;5097956;27;20437;-75
2022/07/14 08:30:25;;;;;;;1999.90;999.90;;;;;;;;;;5093464;27;21153;-76
2022/07/14 08:32:55;;;;;;;1999.90;999.90;;;;;;;;;;5095395;27;20391;-76
2022/07/14 08:35:24;;;;;;;1999.90;999.90;;;;;;;;;;5095834;27;20483;-76
2022/07/14 08:37:52;;;;;;;1999.90;999.90;;;;;;;;;;5097222;27;20404;-76
2022/07/14 08:40:21;;;;;;;1999.90;999.90;;;;;;;;;;5096227;27;20403;-75
2022/07/14 08:42:50;;;;;;;1999.90;999.90;;;;;;;;;;5095084;27;20865;-75
2022/07/14 08:45:18;;;;;;;1999.90;999.90;;;;;;;;;;5095928;27;20414;-77
2022/07/14 08:47:46;;;;;;;1999.90;999.90;;;;;;;;;;5097437;27;20904;-74
2022/07/14 08:50:16;;;;;;;1999.90;999.90;;;;;;;;;;5097894;27;20815;-77
2022/07/14 08:52:44;;;;;;;1999.90;999.90;;;;;;;;;;5096882;27;20830;-76
2022/07/14 08:55:13;;;;;;;1999.90;999.90;;;;;;;;;;5097816;27;20403;-75
2022/07/14 08:57:42;;;;;;;1999.90;999.90;;;;;;;;;;5080354;28;20403;-76
2022/07/14 09:00:12;;;;;;;1999.90;999.90;;;;;;;;;;5098536;27;20410;-75
2022/07/14 09:02:40;;;;;;;1999.90;999.90;;;;;;;;;;5095506;27;20422;-75
2022/07/14 09:05:30;;;;;;;1999.90;999.90;;;;;;;;;;5096772;27;20818;-76
2022/07/14 09:07:58;;;;;;;1999.90;999.90;;;;;;;;;;5098267;27;20392;-77
2022/07/14 09:10:26;;;;;;;1999.90;999.90;;;;;;;;;;5098341;27;20434;-75
2022/07/14 09:13:09;;;;;;;1999.90;999.90;;;;;;;;;;5097369;27;20415;-76
2022/07/14 09:15:46;;;;;;;1999.90;999.90;;;;;;;;;;5096578;27;20430;-77
2022/07/14 09:18:21;;;;;;;1999.90;999.90;;;;;;;;;;5097720;27;20448;-76
2022/07/14 09:20:52;;;;;;;1999.90;999.90;;;;;;;;;;5096242;27;21379;-76
2022/07/14 09:23:27;;;;;;;1999.90;999.90;;;;;;;;;;5096339;27;20449;-75
2022/07/14 09:26:09;;;;;;;1999.90;999.90;;;;;;;;;;5098853;27;20423;-76
2022/07/14 09:28:39;;;;;;;1999.90;999.90;;;;;;;;;;5098917;27;20387;-76
2022/07/14 09:31:22;;;;;;;1999.90;999.90;;;;;;;;;;5094444;27;20857;-76
2022/07/14 09:33:50;;;;;;;1999.90;999.90;;;;;;;;;;5094813;27;20398;-77
2022/07/14 09:36:26;;;;;;;1999.90;999.90;;;;;;;;;;5095435;27;20423;-75
2022/07/14 09:38:57;;;;;;;1999.90;999.90;;;;;;;;;;5098802;27;20395;-75
2022/07/14 09:41:26;;;;;;;1999.90;999.90;;;;;;;;;;5092458;27;20518;-76
2022/07/14 09:44:06;;;;;;;1999.90;999.90;;;;;;;;;;5078153;27;20391;-76
2022/07/14 09:46:48;;;;;;;1999.90;999.90;;;;;;;;;;5098047;27;20419;-75
2022/07/14 09:49:16;;;;;;;1999.90;999.90;;;;;;;;;;5098340;27;20489;-76
2022/07/14 09:52:02;;;;;;;1999.90;999.90;;;;;;;;;;5093690;27;20886;-76
2022/07/14 09:54:41;;;;;;;1999.90;999.90;;;;;;;;;;5112690;27;21245;-76
2022/07/14 09:57:09;;;;;;;1999.90;999.90;;;;;;;;;;5079575;28;21427;-76
2022/07/14 09:59:43;;;;;;;1999.90;999.90;;;;;;;;;;5095260;27;21219;-75
2022/07/14 10:02:15;;;;;;;1999.90;999.90;;;;;;;;;;5111323;27;20387;-75
2022/07/14 10:04:44;;;;;;;1999.90;999.90;;;;;;;;;;5097825;27;22313;-77
2022/07/14 10:07:12;;;;;;;1999.90;999.90;;;;;;;;;;5094533;27;20419;-76
2022/07/14 10:09:44;;;;;;;1999.90;999.90;;;;;;;;;;5094409;27;20415;-76
2022/07/14 10:12:12;;;;;;;1999.90;999.90;;;;;;;;;;5095546;27;20919;-75
2022/07/14 10:14:40;;;;;;;1999.90;999.90;;;;;;;;;;5078241;27;20478;-75
2022/07/14 10:17:08;;;;;;;1999.90;999.90;;;;;;;;;;5094836;27;20395;-77
2022/07/14 10:19:36;;;;;;;1999.90;999.90;;;;;;;;;;5079288;28;20399;-76
2022/07/14 10:22:04;;;;;;;1999.90;999.90;;;;;;;;;;5093156;27;20398;-75
2022/07/14 10:24:33;;;;;;;1999.90;999.90;;;;;;;;;;5112342;27;20438;-75
2022/07/14 10:27:02;;;;;;;1999.90;999.90;;;;;;;;;;5095273;27;20609;-76
2022/07/14 10:29:30;;;;;;;1999.90;999.90;;;;;;;;;;5097915;27;20406;-76
2022/07/14 10:32:05;;;;;;;1999.90;999.90;;;;;;;;;;5094249;27;20406;-76
2022/07/14 10:34:38;;;;;;;1999.90;999.90;;;;;;;;;;5112347;27;20402;-76
2022/07/14 10:37:09;;;;;;;1999.90;999.90;;;;;;;;;;5095656;27;20407;-77
2022/07/14 10:39:42;;;;;;;1999.90;999.90;;;;;;;;;;5097081;27;20398;-76
2022/07/14 10:42:16;;;;;;;1999.90;999.90;;;;;;;;;;5093994;27;20494;-76
2022/07/14 10:44:45;;;;;;;1999.90;999.90;;;;;;;;;;5096900;27;20391;-75
2022/07/14 10:47:13;;;;;;;1999.90;999.90;;;;;;;;;;5093426;27;20399;-76
2022/07/14 10:50:00;;;;;;;1999.90;999.90;;;;;;;;;;5093099;27;20512;-75
2022/07/14 10:52:29;;;;;;;1999.90;999.90;;;;;;;;;;5085973;27;20387;-76
2022/07/14 10:55:13;;;;;;;1999.90;999.90;;;;;;;;;;5093871;27;20428;-76
2022/07/14 10:57:56;;;;;;;1999.90;999.90;;;;;;;;;;5092896;27;20458;-76
2022/07/14 11:00:43;;;;;;;1999.90;999.90;;;;;;;;;;5093518;27;20399;-76
2022/07/14 11:03:19;;;;;;;1999.90;999.90;;;;;;;;;;5095033;27;20407;-75
2022/07/14 11:06:07;;;;;;;1999.90;999.90;;;;;;;;;;5095108;27;20458;-75
2022/07/14 11:09:07;;;;;;;1999.90;999.90;;;;;;;;;;5093378;27;20399;-77
2022/07/14 11:11:35;;;;;;;1999.90;999.90;;;;;;;;;;5092746;27;20418;-77
2022/07/14 11:14:04;;;;;;;1999.90;999.90;;;;;;;;;;5095070;27;20387;-75
2022/07/14 11:16:50;;;;;;;1999.90;999.90;;;;;;;;;;5099913;27;20387;-78
2022/07/14 11:19:22;;;;;;;1999.90;999.90;;;;;;;;;;5079729;27;20529;-77
2022/07/14 11:22:04;;;;;;;1999.90;999.90;;;;;;;;;;5099276;27;20399;-78
2022/07/14 11:24:33;;;;;;;1999.90;999.90;;;;;;;;;;5099650;27;20952;-77
2022/07/14 11:27:15;;;;;;;1999.90;999.90;;;;;;;;;;5099002;27;21182;-78
2022/07/14 11:29:43;;;;;;;1999.90;999.90;;;;;;;;;;5099062;27;20414;-78
2022/07/14 11:32:26;;;;;;;1999.90;999.90;;;;;;;;;;5098627;27;20391;-79
2022/07/14 11:37:56;;;;;;;1999.90;999.90;;;;;;;;;;5095808;27;20474;-78
2022/07/14 11:40:43;;;;;;;1999.90;999.90;;;;;;;;;;5097432;27;20402;-77
2022/07/14 11:43:36;;;;;;;1999.90;999.90;;;;;;;;;;5097194;27;20384;-77
2022/07/14 11:46:06;;;;;;;1999.90;999.90;;;;;;;;;;5114673;27;20403;-75
2022/07/14 11:48:35;;;;;;;1999.90;999.90;;;;;;;;;;5114005;27;20408;-76
2022/07/14 11:51:06;;;;;;;1999.90;999.90;;;;;;;;;;5097208;27;20450;-77
2022/07/14 11:53:34;;;;;;;1999.90;999.90;;;;;;;;;;5098869;27;20994;-77
2022/07/14 11:56:02;;;;;;;1999.90;999.90;;;;;;;;;;5097504;27;20379;-78
2022/07/14 11:58:31;;;;;;;1999.90;999.90;;;;;;;;;;5101261;27;21640;-79
2022/07/14 12:01:00;;;;;;;1999.90;999.90;;;;;;;;;;5098019;27;20418;-77
2022/07/14 12:03:28;;;;;;;1999.90;999.90;;;;;;;;;;5099631;27;20387;-77
2022/07/14 12:05:58;;;;;;;1999.90;999.90;;;;;;;;;;5096695;27;20364;-77
2022/07/14 12:08:28;;;;;;;1999.90;999.90;;;;;;;;;;5098838;27;20498;-77
2022/07/14 12:11:01;;;;;;;1999.90;999.90;;;;;;;;;;5099112;27;20910;-77
2022/07/14 12:13:29;;;;;;;1999.90;999.90;;;;;;;;;;5101859;27;20383;-75
2022/07/14 12:16:01;;;;;;;1999.90;999.90;;;;;;;;;;5113887;27;21432;-77
2022/07/14 12:18:33;;;;;;;1999.90;999.90;;;;;;;;;;5080159;27;20905;-76
2022/07/14 12:21:00;;;;;;;1999.90;999.90;;;;;;;;;;5095886;27;20879;-75
2022/07/14 12:23:29;;;;;;;1999.90;999.90;;;;;;;;;;5097192;27;20387;-75
2022/07/14 12:26:00;;;;;;;1999.90;999.90;;;;;;;;;;5097574;27;20404;-75
2022/07/14 12:28:32;;;;;;;1999.90;999.90;;;;;;;;;;5098679;27;20480;-75
2022/07/14 12:31:00;;;;;;;1999.90;999.90;;;;;;;;;;5096663;27;21262;-76
2022/07/14 12:33:32;;;;;;;1999.90;999.90;;;;;;;;;;5098362;27;20387;-76
2022/07/14 12:36:00;;;;;;;1999.90;999.90;;;;;;;;;;5095977;27;20395;-76
2022/07/14 12:38:32;;;;;;;1999.90;999.90;;;;;;;;;;5098148;27;20403;-76
2022/07/14 12:41:01;;;;;;;1999.90;999.90;;;;;;;;;;5114229;27;20887;-76
2022/07/14 12:43:33;;;;;;;1999.90;999.90;;;;;;;;;;5096897;27;20412;-76
2022/07/14 12:46:03;;;;;;;1999.90;999.90;;;;;;;;;;5097813;27;20399;-76
2022/07/14 12:48:32;;;;;;;1999.90;999.90;;;;;;;;;;5098677;27;20490;-76
2022/07/14 12:51:15;;;;;;;1999.90;999.90;;;;;;;;;;5097666;27;20399;-77
2022/07/14 12:53:57;;;;;;;1999.90;999.90;;;;;;;;;;5096207;27;20407;-76
2022/07/14 12:56:24;;;;;;;1999.90;999.90;;;;;;;;;;5097597;27;20448;-77
2022/07/14 12:58:52;;;;;;;1999.90;999.90;;;;;;;;;;5079887;27;20837;-76
2022/07/14 13:01:20;;;;;;;1999.90;999.90;;;;;;;;;;5096606;27;20556;-76
2022/07/14 13:03:55;;;;;;;1999.90;999.90;;;;;;;;;;5096727;27;21529;-76
2022/07/14 13:06:23;;;;;;;1999.90;999.90;;;;;;;;;;5097069;27;20475;-76
2022/07/14 13:08:51;;;;;;;1999.90;999.90;;;;;;;;;;5096979;27;20399;-76
2022/07/14 13:11:20;;;;;;;1999.90;999.90;;;;;;;;;;5096398;27;20446;-76
2022/07/14 13:13:49;;;;;;;1999.90;999.90;;;;;;;;;;5097833;27;20748;-76
2022/07/14 13:16:19;;;;;;;1999.90;999.90;;;;;;;;;;5096208;27;20399;-76
2022/07/14 13:19:07;;;;;;;1999.90;999.90;;;;;;;;;;5094219;27;20402;-76
2022/07/14 13:22:02;;;;;;;1999.90;999.90;;;;;;;;;;5093568;27;20415;-77
2022/07/14 13:24:32;;;;;;;1999.90;999.90;;;;;;;;;;5097684;27;20403;-76
2022/07/14 13:27:03;;;;;;;1999.90;999.90;;;;;;;;;;5093589;27;20411;-76
2022/07/14 13:29:31;;;;;;;1999.90;999.90;;;;;;;;;;5096653;27;20419;-77
2022/07/14 13:31:59;;;;;;;1999.90;999.90;;;;;;;;;;5095603;27;21213;-77
2022/07/14 13:34:28;;;;;;;1999.90;999.90;;;;;;;;;;5091336;27;21152;-76
2022/07/14 13:36:56;;;;;;;1999.90;999.90;;;;;;;;;;5088341;27;20382;-75
2022/07/14 13:39:24;;;;;;;1999.90;999.90;;;;;;;;;;5092158;27;20395;-73
2022/07/14 13:41:54;;;;;;;1999.90;999.90;;;;;;;;;;5093940;27;20897;-76
2022/07/14 13:44:24;;;;;;;1999.90;999.90;;;;;;;;;;5096723;27;20399;-77
2022/07/14 13:46:52;;;;;;;1999.90;999.90;;;;;;;;;;5095595;27;20383;-76
2022/07/14 13:49:20;;;;;;;1999.90;999.90;;;;;;;;;;5077825;27;20376;-75
2022/07/14 13:54:33;;;;;;;1999.90;999.90;;;;;;;;;;5110256;27;20399;-74
2022/07/14 13:57:01;;;;;;;1999.90;999.90;;;;;;;;;;5091427;27;20407;-74
2022/07/14 13:59:31;;;;;;;1999.90;999.90;;;;;;;;;;5094397;27;20387;-74
2022/07/14 14:01:58;;;;;;;1999.90;999.90;;;;;;;;;;5093355;27;20419;-73
2022/07/14 14:04:26;;;;;;;1999.90;999.90;;;;;;;;;;5095079;27;20446;-75
2022/07/14 14:06:54;;;;;;;1999.90;999.90;;;;;;;;;;5094526;27;21331;-74
2022/07/14 14:09:27;;;;;;;1999.90;999.90;;;;;;;;;;5095526;27;20409;-75
2022/07/14 14:11:56;;;;;;;1999.90;999.90;;;;;;;;;;5093477;27;20423;-75
2022/07/14 14:14:24;;;;;;;1999.90;999.90;;;;;;;;;;5096114;27;21329;-75